Time;durP1;ratioP1;P1;durP2;ratioP2;P2;SDS_P1;SDS_P2;PMS_P1;PMS_P2;Temp;Humidity;BMP_temperature;BMP_pressure;BME280_temperature;BME280_humidity;BME280_pressure;Samples;Min_cycle;Max_cycle;Signal;HPM_P1;HPM_P2
2023/08/18 00:01:15;;;;;;;7.22;4.95;;;19.50;99.90;;;;;;5067496;28;20107;-69
2023/08/18 00:03:41;;;;;;;8.35;4.70;;;19.50;99.90;;;;;;5057314;28;20481;-70
2023/08/18 00:06:06;;;;;;;10.35;5.68;;;19.50;99.90;;;;;;5070257;28;20028;-68
2023/08/18 00:08:32;;;;;;;9.48;5.80;;;19.50;99.90;;;;;;5061508;28;20027;-69
2023/08/18 00:10:57;;;;;;;8.57;5.50;;;19.40;99.90;;;;;;5063446;28;20514;-69
2023/08/18 00:13:23;;;;;;;9.60;5.97;;;19.40;99.90;;;;;;5068514;28;20461;-70
2023/08/18 00:15:48;;;;;;;9.27;6.32;;;19.40;99.90;;;;;;5056176;28;20033;-69
2023/08/18 00:18:14;;;;;;;10.48;6.22;;;19.40;99.90;;;;;;5068602;28;20040;-69
2023/08/18 00:20:40;;;;;;;8.73;6.55;;;19.40;99.90;;;;;;5054016;28;20066;-68
2023/08/18 00:23:07;;;;;;;10.45;6.40;;;19.40;99.90;;;;;;5066371;28;20032;-69
2023/08/18 00:25:32;;;;;;;11.27;6.95;;;19.30;99.90;;;;;;5058227;28;20037;-71
2023/08/18 00:27:58;;;;;;;9.80;7.15;;;19.30;99.90;;;;;;5070716;28;20082;-69
2023/08/18 00:30:24;;;;;;;8.57;6.40;;;19.30;99.90;;;;;;5060003;28;20067;-69
2023/08/18 00:32:51;;;;;;;11.20;7.30;;;19.30;99.90;;;;;;5063768;28;20035;-71
2023/08/18 00:35:16;;;;;;;10.20;7.05;;;19.30;99.90;;;;;;5066950;28;20491;-68
2023/08/18 00:37:43;;;;;;;13.02;7.10;;;19.30;99.90;;;;;;5056819;28;20033;-70
2023/08/18 00:40:10;;;;;;;11.35;7.10;;;19.30;99.90;;;;;;5069296;28;20483;-69
2023/08/18 00:42:35;;;;;;;12.02;7.47;;;19.20;99.90;;;;;;5061976;28;20109;-69
2023/08/18 00:45:01;;;;;;;11.50;7.35;;;19.20;99.90;;;;;;5061959;28;20076;-72
2023/08/18 00:47:27;;;;;;;12.90;7.97;;;19.20;99.90;;;;;;5067908;28;20108;-70
2023/08/18 00:49:54;;;;;;;11.55;7.90;;;19.20;99.90;;;;;;5056207;28;20075;-70
2023/08/18 00:52:20;;;;;;;15.05;8.48;;;19.20;99.90;;;;;;5067717;28;20029;-70
2023/08/18 00:54:49;;;;;;;11.63;6.80;;;19.20;99.90;;;;;;5062765;28;20071;-70
2023/08/18 00:57:15;;;;;;;13.20;7.95;;;19.20;99.90;;;;;;5059871;28;20108;-70
2023/08/18 00:59:43;;;;;;;13.25;8.32;;;19.20;99.90;;;;;;5069460;28;20108;-68
2023/08/18 01:02:09;;;;;;;12.98;8.20;;;19.10;99.90;;;;;;5056869;28;20024;-70
2023/08/18 01:04:34;;;;;;;14.50;8.85;;;19.10;99.90;;;;;;5064144;28;20094;-68
2023/08/18 01:07:00;;;;;;;16.17;11.20;;;19.20;99.90;;;;;;5064529;28;20056;-69
2023/08/18 01:09:27;;;;;;;14.80;9.80;;;19.10;99.90;;;;;;5058203;28;20461;-69
2023/08/18 01:12:08;;;;;;;14.98;9.85;;;19.10;99.90;;;;;;5069777;28;20064;-69
2023/08/18 01:15:14;;;;;;;14.68;9.82;;;19.10;99.90;;;;;;5060380;28;20028;-70
2023/08/18 01:18:10;;;;;;;15.85;10.25;;;19.10;99.90;;;;;;5043715;28;20048;-70
2023/08/18 01:20:37;;;;;;;16.05;9.88;;;19.00;99.90;;;;;;5060406;28;20091;-69
2023/08/18 01:23:03;;;;;;;13.45;9.85;;;19.00;99.90;;;;;;5064351;28;20066;-69
2023/08/18 01:25:30;;;;;;;17.75;10.88;;;19.00;99.90;;;;;;5057540;28;20045;-69
2023/08/18 01:27:59;;;;;;;16.67;10.80;;;19.00;99.90;;;;;;5069216;28;20025;-69
2023/08/18 01:30:32;;;;;;;17.45;11.23;;;19.00;99.90;;;;;;5052341;28;20025;-71
2023/08/18 01:33:09;;;;;;;17.85;11.27;;;18.90;99.90;;;;;;5063752;28;20040;-68
2023/08/18 01:35:36;;;;;;;17.98;11.18;;;18.90;99.90;;;;;;5056192;28;20377;-71
2023/08/18 01:38:04;;;;;;;16.48;11.07;;;18.90;99.90;;;;;;5069139;28;20111;-71
2023/08/18 01:40:30;;;;;;;20.17;12.75;;;18.90;99.90;;;;;;5060047;28;20029;-69
2023/08/18 01:42:58;;;;;;;18.63;12.00;;;18.80;99.90;;;;;;5061810;28;20033;-68
2023/08/18 01:45:24;;;;;;;17.25;11.90;;;18.80;99.90;;;;;;5066887;28;20070;-69
2023/08/18 01:47:49;;;;;;;19.23;12.55;;;18.80;99.90;;;;;;5055982;28;20053;-69
2023/08/18 01:50:15;;;;;;;19.05;13.27;;;18.80;99.90;;;;;;5067697;28;20025;-69
2023/08/18 01:52:40;;;;;;;19.08;12.52;;;18.80;99.90;;;;;;5061217;28;20123;-69
2023/08/18 01:55:06;;;;;;;18.30;13.02;;;18.80;99.90;;;;;;5060733;28;20052;-68
2023/08/18 01:57:32;;;;;;;20.13;14.00;;;18.80;99.90;;;;;;5068326;28;20067;-70
2023/08/18 01:59:57;;;;;;;21.75;15.32;;;18.80;99.90;;;;;;5055028;28;20041;-71
2023/08/18 02:02:23;;;;;;;19.48;13.65;;;18.80;99.90;;;;;;5066449;28;20477;-70
2023/08/18 02:04:48;;;;;;;21.15;14.73;;;18.70;99.90;;;;;;5061611;28;20036;-68
2023/08/18 02:07:14;;;;;;;20.33;14.18;;;18.70;99.90;;;;;;5059469;28;20537;-69
2023/08/18 02:09:39;;;;;;;20.35;13.80;;;18.70;99.90;;;;;;5068900;28;20032;-68
2023/08/18 02:12:06;;;;;;;20.65;14.55;;;18.70;99.90;;;;;;5055801;28;20353;-69
2023/08/18 02:14:33;;;;;;;21.48;14.82;;;18.60;99.90;;;;;;5064625;28;20112;-69
2023/08/18 02:16:59;;;;;;;20.92;14.68;;;18.60;99.90;;;;;;5063316;28;20025;-70
2023/08/18 02:19:24;;;;;;;20.90;14.57;;;18.60;99.90;;;;;;5057466;28;20028;-69
2023/08/18 02:21:50;;;;;;;20.02;14.55;;;18.60;99.90;;;;;;5068777;28;20017;-69
2023/08/18 02:24:15;;;;;;;21.35;14.70;;;18.60;99.90;;;;;;5056934;28;20033;-70
2023/08/18 02:26:41;;;;;;;24.48;14.55;;;18.60;99.90;;;;;;5063436;28;20379;-68
2023/08/18 02:29:07;;;;;;;20.67;14.52;;;18.60;99.90;;;;;;5064373;28;20074;-68
2023/08/18 02:31:33;;;;;;;20.77;14.10;;;18.60;99.90;;;;;;5054967;28;20037;-68
2023/08/18 02:33:58;;;;;;;21.50;14.60;;;18.60;99.90;;;;;;5067045;28;20095;-68
2023/08/18 02:36:24;;;;;;;20.77;15.10;;;18.60;99.90;;;;;;5058487;28;20074;-68
2023/08/18 02:38:49;;;;;;;20.63;14.48;;;18.60;99.90;;;;;;5062156;28;20025;-68
2023/08/18 02:41:17;;;;;;;22.42;14.23;;;18.50;99.90;;;;;;5065124;28;20029;-69
2023/08/18 02:43:49;;;;;;;22.33;14.38;;;18.50;99.90;;;;;;5055230;28;20021;-69
2023/08/18 02:46:15;;;;;;;22.35;15.02;;;18.50;99.90;;;;;;5049367;28;20529;-69
2023/08/18 02:48:40;;;;;;;19.55;13.57;;;18.50;99.90;;;;;;5060281;28;20056;-67
2023/08/18 02:51:07;;;;;;;19.20;12.77;;;18.50;99.90;;;;;;5059680;28;20032;-69
2023/08/18 02:53:33;;;;;;;20.73;13.20;;;18.40;99.90;;;;;;5067619;28;20024;-69
2023/08/18 02:56:00;;;;;;;17.95;12.27;;;18.40;99.90;;;;;;5054795;28;20060;-68
2023/08/18 02:58:28;;;;;;;18.92;12.80;;;18.40;99.90;;;;;;5065286;28;20036;-68
2023/08/18 03:00:55;;;;;;;19.45;12.75;;;18.40;99.90;;;;;;5061951;28;20514;-68
2023/08/18 03:03:21;;;;;;;19.27;12.40;;;18.30;99.90;;;;;;5057440;28;20047;-71
2023/08/18 03:05:47;;;;;;;19.48;12.60;;;18.30;99.90;;;;;;5068091;28;20044;-70
2023/08/18 03:08:13;;;;;;;17.60;11.68;;;18.30;99.90;;;;;;5056151;28;20024;-69
2023/08/18 03:10:38;;;;;;;18.45;11.90;;;18.20;99.90;;;;;;5063385;28;20677;-68
2023/08/18 03:13:04;;;;;;;20.67;11.88;;;18.20;99.90;;;;;;5063282;28;20044;-70
2023/08/18 03:15:38;;;;;;;18.90;11.73;;;18.20;99.90;;;;;;5060133;28;20416;-70
2023/08/18 03:18:04;;;;;;;16.58;11.30;;;18.10;99.90;;;;;;5042461;28;20025;-69
2023/08/18 03:20:29;;;;;;;17.60;11.27;;;18.10;99.90;;;;;;5068241;28;20029;-69
2023/08/18 03:22:55;;;;;;;18.42;11.70;;;18.10;99.90;;;;;;5065810;28;20067;-70
2023/08/18 03:25:20;;;;;;;19.88;11.32;;;18.10;99.90;;;;;;5060843;28;20080;-70
2023/08/18 03:27:47;;;;;;;18.33;11.38;;;18.00;99.90;;;;;;5071357;28;20052;-71
2023/08/18 03:30:13;;;;;;;17.35;11.40;;;18.00;99.90;;;;;;5059569;28;20021;-71
2023/08/18 03:32:38;;;;;;;16.83;10.65;;;18.00;99.90;;;;;;5065272;28;20029;-70
2023/08/18 03:35:04;;;;;;;17.10;11.38;;;18.00;99.90;;;;;;5066863;28;20051;-69
2023/08/18 03:37:30;;;;;;;18.75;12.30;;;18.00;99.90;;;;;;5059191;28;20381;-71
2023/08/18 03:39:55;;;;;;;16.80;11.43;;;17.90;99.90;;;;;;5071476;28;20025;-70
2023/08/18 03:42:22;;;;;;;18.42;12.10;;;18.00;99.90;;;;;;5060500;28;20544;-69
2023/08/18 03:44:47;;;;;;;18.35;12.20;;;17.90;99.90;;;;;;5064606;28;20112;-70
2023/08/18 03:47:13;;;;;;;18.33;12.80;;;17.90;99.90;;;;;;5067899;28;20112;-69
2023/08/18 03:49:39;;;;;;;19.55;12.43;;;17.90;99.90;;;;;;5058158;28;20084;-69
2023/08/18 03:52:05;;;;;;;23.80;12.98;;;17.90;99.90;;;;;;5071021;28;20092;-68
2023/08/18 03:54:30;;;;;;;21.10;13.68;;;17.90;99.90;;;;;;5061601;28;20039;-70
2023/08/18 03:56:56;;;;;;;20.15;13.93;;;17.90;99.90;;;;;;5063953;28;20033;-68
2023/08/18 03:59:21;;;;;;;22.48;14.80;;;17.90;99.90;;;;;;5068579;28;20069;-69
2023/08/18 04:01:47;;;;;;;18.75;13.48;;;17.90;99.90;;;;;;5056722;28;20036;-68
2023/08/18 04:04:13;;;;;;;19.85;13.63;;;17.90;99.90;;;;;;5069775;28;20040;-68
2023/08/18 04:06:38;;;;;;;20.10;14.00;;;17.90;99.90;;;;;;5063313;28;20107;-68
2023/08/18 04:09:08;;;;;;;19.02;12.85;;;17.90;99.90;;;;;;5062340;28;20025;-68
2023/08/18 04:11:34;;;;;;;20.40;12.80;;;17.90;99.90;;;;;;5070312;28;20028;-68
2023/08/18 04:14:00;;;;;;;18.65;11.75;;;17.90;99.90;;;;;;5057482;28;20028;-69
2023/08/18 04:16:26;;;;;;;19.23;11.55;;;18.00;99.90;;;;;;5068186;28;20029;-69
2023/08/18 04:18:52;;;;;;;19.25;12.68;;;17.90;99.90;;;;;;5063373;28;20430;-69
2023/08/18 04:21:17;;;;;;;18.50;12.18;;;17.90;99.90;;;;;;5060825;28;20081;-69
2023/08/18 04:23:43;;;;;;;16.70;11.35;;;17.90;99.90;;;;;;5070795;28;20020;-68
2023/08/18 04:26:08;;;;;;;15.65;10.73;;;17.90;99.90;;;;;;5058440;28;20047;-69
2023/08/18 04:28:34;;;;;;;17.15;11.52;;;18.00;99.90;;;;;;5066547;28;20024;-70
2023/08/18 04:31:00;;;;;;;20.73;11.88;;;18.00;99.90;;;;;;5065531;28;20028;-69
2023/08/18 04:33:26;;;;;;;17.33;12.30;;;18.00;99.90;;;;;;5059391;28;20037;-69
2023/08/18 04:35:51;;;;;;;19.73;12.43;;;18.00;99.90;;;;;;5070543;28;20025;-69
2023/08/18 04:38:17;;;;;;;17.17;11.68;;;18.00;99.90;;;;;;5059447;28;20023;-69
2023/08/18 04:40:43;;;;;;;18.60;12.52;;;18.00;99.90;;;;;;5065245;28;20025;-69
2023/08/18 04:43:09;;;;;;;17.75;12.07;;;18.00;99.90;;;;;;5066191;28;20075;-70
2023/08/18 04:45:35;;;;;;;18.85;11.90;;;18.00;99.90;;;;;;5057822;28;20090;-70
2023/08/18 04:48:00;;;;;;;17.20;10.82;;;18.00;99.90;;;;;;5070184;28;20051;-71
2023/08/18 04:50:26;;;;;;;17.52;11.60;;;18.00;99.90;;;;;;5059954;28;20380;-69
2023/08/18 04:52:51;;;;;;;17.15;10.70;;;18.10;99.90;;;;;;5063444;28;20029;-68
2023/08/18 04:55:17;;;;;;;18.85;12.07;;;18.10;99.90;;;;;;5067195;28;20107;-68
2023/08/18 04:57:42;;;;;;;19.08;11.07;;;18.10;99.90;;;;;;5056500;28;20025;-70
2023/08/18 05:00:09;;;;;;;17.33;10.88;;;18.10;99.90;;;;;;5069322;28;20021;-69
2023/08/18 05:02:34;;;;;;;20.50;11.93;;;18.10;99.90;;;;;;5061153;28;20154;-68
2023/08/18 05:05:00;;;;;;;17.55;11.02;;;18.10;99.90;;;;;;5061941;28;20123;-68
2023/08/18 05:07:26;;;;;;;20.27;12.10;;;18.20;99.90;;;;;;5068009;28;20464;-68
2023/08/18 05:09:52;;;;;;;21.42;12.30;;;18.20;99.90;;;;;;5056852;28;20067;-68
2023/08/18 05:12:17;;;;;;;19.85;11.90;;;18.20;99.90;;;;;;5067704;28;20119;-69
2023/08/18 05:14:43;;;;;;;20.63;12.32;;;18.20;99.90;;;;;;5062435;28;20020;-69
2023/08/18 05:17:08;;;;;;;20.83;12.40;;;18.20;99.90;;;;;;5060644;28;20487;-69
2023/08/18 05:19:34;;;;;;;20.52;12.48;;;18.30;99.90;;;;;;5067802;28;20032;-68
2023/08/18 05:22:00;;;;;;;18.42;12.35;;;18.30;99.90;;;;;;5056213;28;20056;-69
2023/08/18 05:24:25;;;;;;;16.95;10.63;;;18.40;99.90;;;;;;5066409;28;20045;-69
2023/08/18 05:26:51;;;;;;;18.42;11.15;;;18.30;99.90;;;;;;5062466;28;20052;-68
2023/08/18 05:29:16;;;;;;;17.35;10.45;;;18.40;99.90;;;;;;5059079;28;20094;-69
2023/08/18 05:31:44;;;;;;;17.42;10.68;;;18.40;99.90;;;;;;5068066;28;20027;-69
2023/08/18 05:34:10;;;;;;;15.57;9.82;;;18.40;99.90;;;;;;5057008;28;20029;-68
2023/08/18 05:36:36;;;;;;;16.08;10.30;;;18.40;99.90;;;;;;5064709;28;20047;-68
2023/08/18 05:39:02;;;;;;;15.45;9.45;;;18.40;99.90;;;;;;5064458;28;20028;-68
2023/08/18 05:41:28;;;;;;;16.30;9.00;;;18.50;99.90;;;;;;5057291;28;20457;-67
2023/08/18 05:43:53;;;;;;;16.13;8.50;;;18.50;99.90;;;;;;5069306;28;20115;-68
2023/08/18 05:46:19;;;;;;;14.05;7.88;;;18.60;99.90;;;;;;5057011;28;20112;-68
2023/08/18 05:48:44;;;;;;;14.18;7.18;;;18.70;99.90;;;;;;5063024;28;20114;-67
2023/08/18 05:51:10;;;;;;;15.73;7.65;;;18.80;99.90;;;;;;5065012;28;20032;-67
2023/08/18 05:53:36;;;;;;;13.38;7.07;;;18.80;99.90;;;;;;5056078;28;20029;-68
2023/08/18 05:56:02;;;;;;;13.10;7.85;;;18.90;99.90;;;;;;5067340;28;20423;-70
2023/08/18 05:58:28;;;;;;;12.43;6.72;;;19.00;99.90;;;;;;5059183;28;20103;-69
2023/08/18 06:00:53;;;;;;;12.13;7.15;;;19.00;99.90;;;;;;5062194;28;20032;-69
2023/08/18 06:03:19;;;;;;;12.20;7.25;;;19.10;99.90;;;;;;5066007;28;20372;-68
2023/08/18 06:05:47;;;;;;;11.25;7.13;;;19.10;99.90;;;;;;5054555;28;20504;-68
2023/08/18 06:08:13;;;;;;;11.55;7.05;;;19.00;99.90;;;;;;5071411;28;20025;-71
2023/08/18 06:10:40;;;;;;;13.95;7.20;;;19.10;99.90;;;;;;5072302;28;20030;-69
2023/08/18 06:13:05;;;;;;;12.15;6.95;;;19.10;99.90;;;;;;5072293;28;20063;-68
2023/08/18 06:15:31;;;;;;;11.35;6.55;;;19.10;99.90;;;;;;5072089;28;20059;-69
2023/08/18 06:17:56;;;;;;;12.68;6.25;;;19.10;99.90;;;;;;5071121;28;20036;-68
2023/08/18 06:20:22;;;;;;;14.00;6.75;;;19.10;99.90;;;;;;5072492;28;20044;-69
2023/08/18 06:22:47;;;;;;;9.98;6.25;;;19.10;99.90;;;;;;5072333;28;20028;-69
2023/08/18 06:25:14;;;;;;;13.80;6.03;;;19.10;99.90;;;;;;5072213;28;20040;-68
2023/08/18 06:27:40;;;;;;;10.52;5.93;;;19.20;99.90;;;;;;5072081;28;20578;-70
2023/08/18 06:30:06;;;;;;;11.48;6.20;;;19.20;99.90;;;;;;5071996;28;20028;-69
2023/08/18 06:32:32;;;;;;;11.32;5.70;;;19.30;99.90;;;;;;5072625;28;20029;-68
2023/08/18 06:34:57;;;;;;;12.48;5.72;;;19.40;99.90;;;;;;5071372;28;20554;-69
2023/08/18 06:37:25;;;;;;;14.50;7.20;;;19.50;99.90;;;;;;5070607;28;20036;-70
2023/08/18 06:39:50;;;;;;;12.60;6.60;;;19.60;99.90;;;;;;5071980;28;20028;-69
2023/08/18 06:42:16;;;;;;;13.68;5.95;;;19.70;99.90;;;;;;5072254;28;20032;-68
2023/08/18 06:44:41;;;;;;;15.30;7.32;;;19.80;99.90;;;;;;5072006;28;20404;-69
2023/08/18 06:47:07;;;;;;;12.88;6.63;;;19.90;99.90;;;;;;5071958;28;20388;-70
2023/08/18 06:49:32;;;;;;;12.35;6.18;;;20.10;99.90;;;;;;5074180;28;20504;-69
2023/08/18 06:51:58;;;;;;;12.93;6.22;;;20.30;99.90;;;;;;5076191;28;20028;-69
2023/08/18 06:54:24;;;;;;;10.95;5.93;;;20.40;99.90;;;;;;5071994;28;20025;-70
2023/08/18 06:56:49;;;;;;;9.63;5.53;;;20.60;99.90;;;;;;5060910;28;20033;-68
2023/08/18 06:59:15;;;;;;;10.10;5.72;;;20.90;99.90;;;;;;5056052;28;20070;-68
2023/08/18 07:01:40;;;;;;;15.52;6.40;;;21.10;99.90;;;;;;5066125;28;20357;-66
2023/08/18 07:04:07;;;;;;;8.70;5.38;;;21.30;99.90;;;;;;5066308;28;20053;-67
2023/08/18 07:06:33;;;;;;;10.38;5.68;;;21.40;99.90;;;;;;5068490;28;20043;-68
2023/08/18 07:08:59;;;;;;;12.00;5.45;;;21.40;99.90;;;;;;5059888;28;20032;-69
2023/08/18 07:11:25;;;;;;;15.43;5.15;;;21.40;99.90;;;;;;5072481;28;20025;-68
2023/08/18 07:13:50;;;;;;;12.13;5.38;;;21.30;99.90;;;;;;5062546;28;20036;-68
2023/08/18 07:16:16;;;;;;;8.90;5.28;;;21.30;99.90;;;;;;5064954;28;20033;-69
2023/08/18 07:18:41;;;;;;;9.75;5.35;;;21.20;99.90;;;;;;5069118;28;20036;-68
2023/08/18 07:21:07;;;;;;;11.82;5.32;;;21.20;99.90;;;;;;5058405;28;20033;-70
2023/08/18 07:23:32;;;;;;;11.15;5.70;;;21.20;99.90;;;;;;5070032;28;20453;-68
2023/08/18 07:25:58;;;;;;;9.88;5.20;;;21.20;99.90;;;;;;5063168;28;20064;-69
2023/08/18 07:28:24;;;;;;;9.50;5.32;;;21.30;99.90;;;;;;5063818;28;20021;-69
2023/08/18 07:30:50;;;;;;;9.05;5.05;;;21.30;99.90;;;;;;5070396;28;20032;-68
2023/08/18 07:33:16;;;;;;;10.63;4.88;;;21.40;99.90;;;;;;5058258;28;20029;-70
2023/08/18 07:35:41;;;;;;;9.80;5.43;;;21.40;99.90;;;;;;5069932;28;20033;-68
2023/08/18 07:38:07;;;;;;;10.73;5.20;;;21.50;99.90;;;;;;5063984;28;20037;-69
2023/08/18 07:40:32;;;;;;;9.63;4.43;;;21.70;99.90;;;;;;5062481;28;20468;-69
2023/08/18 07:42:58;;;;;;;10.57;5.30;;;21.90;99.90;;;;;;5070978;28;20024;-67
2023/08/18 07:45:24;;;;;;;9.38;5.05;;;22.10;99.90;;;;;;5058147;28;20085;-69
2023/08/18 07:47:51;;;;;;;9.68;5.43;;;22.20;99.90;;;;;;5068414;28;20041;-68
2023/08/18 07:50:16;;;;;;;9.50;5.03;;;22.30;99.90;;;;;;5064958;28;20028;-68
2023/08/18 07:52:42;;;;;;;10.20;5.07;;;22.50;99.90;;;;;;5073530;28;20024;-68
2023/08/18 07:55:08;;;;;;;7.90;4.35;;;22.70;99.90;;;;;;5057441;28;20060;-68
2023/08/18 07:57:37;;;;;;;9.02;4.53;;;22.90;99.90;;;;;;5070889;28;20064;-69
2023/08/18 08:00:15;;;;;;;10.68;5.00;;;23.20;99.90;;;;;;5063009;28;20131;-68
2023/08/18 08:02:41;;;;;;;12.30;4.93;;;23.60;99.90;;;;;;5061221;28;20029;-69
2023/08/18 08:05:07;;;;;;;11.52;5.22;;;24.50;99.90;;;;;;5070875;28;20475;-68
2023/08/18 08:07:33;;;;;;;9.10;4.57;;;25.20;99.90;;;;;;5058909;28;20384;-68
2023/08/18 08:10:03;;;;;;;9.43;4.93;;;25.70;99.90;;;;;;5067858;28;20107;-68
2023/08/18 08:12:30;;;;;;;11.68;4.93;;;26.10;99.90;;;;;;5067159;28;20032;-69
2023/08/18 08:14:56;;;;;;;8.95;5.00;;;26.30;99.90;;;;;;5058769;28;20032;-70
2023/08/18 08:17:22;;;;;;;9.98;5.18;;;26.40;99.90;;;;;;5070975;28;20033;-71
2023/08/18 08:19:48;;;;;;;10.50;5.15;;;26.80;99.90;;;;;;5060411;28;20031;-69
2023/08/18 08:22:15;;;;;;;11.60;5.50;;;27.60;99.90;;;;;;5064466;28;20028;-70
2023/08/18 08:24:40;;;;;;;9.27;4.85;;;28.50;99.60;;;;;;5068176;28;20427;-69
2023/08/18 08:27:06;;;;;;;12.23;6.15;;;28.80;99.10;;;;;;5057607;28;20526;-69
2023/08/18 08:29:31;;;;;;;8.85;5.18;;;29.30;98.40;;;;;;5073059;28;20384;-69
2023/08/18 08:31:57;;;;;;;11.57;5.82;;;29.90;97.40;;;;;;5066856;28;20440;-69
2023/08/18 08:34:22;;;;;;;10.75;6.03;;;29.80;97.10;;;;;;5065142;28;20040;-68
2023/08/18 08:36:48;;;;;;;11.70;6.15;;;29.80;97.30;;;;;;5059609;28;20385;-69
2023/08/18 08:39:13;;;;;;;12.13;6.65;;;30.70;96.70;;;;;;5070232;28;20025;-68
2023/08/18 08:41:39;;;;;;;9.70;5.70;;;31.20;95.50;;;;;;5058996;28;20036;-69
2023/08/18 08:44:05;;;;;;;11.70;5.30;;;30.90;95.50;;;;;;5064833;28;20033;-68
2023/08/18 08:46:31;;;;;;;10.82;6.25;;;30.50;95.60;;;;;;5065983;28;20468;-69
2023/08/18 08:49:03;;;;;;;16.90;7.10;;;29.90;96.10;;;;;;5057719;28;20146;-69
2023/08/18 08:51:35;;;;;;;14.20;6.60;;;29.30;97.00;;;;;;5041320;28;20044;-69
2023/08/18 08:54:02;;;;;;;13.25;6.85;;;28.70;97.40;;;;;;5065459;28;20027;-68
2023/08/18 08:56:31;;;;;;;14.32;7.05;;;28.30;98.10;;;;;;5065736;28;20496;-68
2023/08/18 08:58:57;;;;;;;14.57;7.28;;;28.30;98.30;;;;;;5057758;28;20055;-68
2023/08/18 09:01:26;;;;;;;14.20;6.30;;;28.70;98.00;;;;;;5067432;28;20094;-69
2023/08/18 09:03:52;;;;;;;11.05;6.63;;;29.50;97.50;;;;;;5066739;28;20469;-69
2023/08/18 09:06:17;;;;;;;11.02;6.43;;;30.40;96.30;;;;;;5063928;28;20033;-69
2023/08/18 09:08:43;;;;;;;14.13;6.68;;;31.30;95.40;;;;;;5059479;28;20033;-68
2023/08/18 09:11:09;;;;;;;13.10;6.38;;;32.50;94.30;;;;;;5068840;28;20037;-69
2023/08/18 09:13:35;;;;;;;11.40;6.45;;;33.50;93.50;;;;;;5057719;28;20464;-69
2023/08/18 09:16:06;;;;;;;12.20;6.18;;;34.20;92.50;;;;;;5056913;28;20063;-70
2023/08/18 09:18:33;;;;;;;12.02;6.47;;;34.10;92.30;;;;;;5066040;28;20029;-69
2023/08/18 09:21:04;;;;;;;11.07;6.30;;;33.90;92.20;;;;;;5056753;28;20087;-70
2023/08/18 09:23:29;;;;;;;11.88;7.05;;;34.10;92.10;;;;;;5051347;28;20029;-70
2023/08/18 09:25:57;;;;;;;11.07;6.40;;;34.20;91.90;;;;;;5060521;28;20120;-69
2023/08/18 09:28:23;;;;;;;10.45;6.22;;;34.30;91.70;;;;;;5061930;28;20094;-69
2023/08/18 09:30:49;;;;;;;13.35;6.93;;;34.30;91.60;;;;;;5066995;28;20123;-69
2023/08/18 09:33:16;;;;;;;11.38;6.25;;;33.90;91.80;;;;;;5069620;28;20063;-69
2023/08/18 09:35:41;;;;;;;10.35;6.65;;;33.60;92.00;;;;;;5058439;28;20491;-69
2023/08/18 09:38:12;;;;;;;11.00;5.90;;;33.50;92.00;;;;;;5066840;28;20052;-69
2023/08/18 09:40:37;;;;;;;11.00;6.45;;;33.40;92.10;;;;;;5069226;28;20032;-69
2023/08/18 09:43:03;;;;;;;9.02;5.60;;;33.80;91.80;;;;;;5055759;28;20116;-70
2023/08/18 09:45:30;;;;;;;11.82;6.10;;;34.10;91.60;;;;;;5068812;28;20155;-70
2023/08/18 09:47:56;;;;;;;9.85;5.68;;;35.00;91.00;;;;;;5058403;28;20053;-70
2023/08/18 09:50:26;;;;;;;9.60;5.95;;;36.10;90.00;;;;;;5063578;28;20024;-69
2023/08/18 09:52:56;;;;;;;11.52;6.38;;;36.50;88.90;;;;;;5057369;28;20029;-70
2023/08/18 09:55:32;;;;;;;14.25;6.90;;;36.20;89.20;;;;;;5068931;28;20115;-70
2023/08/18 09:58:34;;;;;;;11.05;6.07;;;36.20;88.80;;;;;;5060512;28;20040;-71
2023/08/18 10:01:04;;;;;;;10.18;6.68;;;36.00;88.70;;;;;;5044457;28;20428;-69
2023/08/18 10:03:31;;;;;;;16.80;8.32;;;35.50;89.40;;;;;;5051665;28;20062;-69
2023/08/18 10:05:58;;;;;;;14.82;7.78;;;35.00;90.10;;;;;;5072125;28;20042;-69
2023/08/18 10:08:25;;;;;;;11.43;7.25;;;34.60;90.40;;;;;;5060748;28;20129;-69
2023/08/18 10:10:51;;;;;;;12.20;6.82;;;34.20;90.70;;;;;;5067667;28;20036;-70
2023/08/18 10:13:17;;;;;;;11.95;6.97;;;33.70;90.90;;;;;;5055128;28;20059;-71
2023/08/18 10:15:43;;;;;;;13.90;7.90;;;33.30;91.40;;;;;;5066551;28;20469;-69
2023/08/18 10:18:11;;;;;;;12.48;6.63;;;33.10;91.50;;;;;;5043762;28;20029;-71
2023/08/18 10:20:48;;;;;;;12.95;7.47;;;32.90;91.80;;;;;;5059083;28;20025;-69
2023/08/18 10:23:14;;;;;;;14.45;7.70;;;32.50;92.10;;;;;;5061198;28;20036;-69
2023/08/18 10:25:39;;;;;;;13.63;7.93;;;32.10;92.40;;;;;;5064224;28;20036;-71
2023/08/18 10:28:06;;;;;;;15.75;8.05;;;31.60;92.70;;;;;;5066299;28;20142;-69
2023/08/18 10:30:31;;;;;;;14.55;7.80;;;31.10;93.30;;;;;;5059747;28;20021;-69
2023/08/18 10:33:03;;;;;;;14.45;7.63;;;30.80;93.60;;;;;;5068173;28;20040;-70
2023/08/18 10:35:29;;;;;;;14.13;7.75;;;30.50;93.80;;;;;;5046193;28;20020;-70
2023/08/18 10:37:57;;;;;;;13.32;7.47;;;30.10;94.70;;;;;;5064705;28;20423;-70
2023/08/18 10:40:28;;;;;;;14.00;7.82;;;29.80;94.70;;;;;;5061827;28;20028;-68
2023/08/18 10:43:02;;;;;;;13.73;8.60;;;29.60;95.20;;;;;;5056320;28;20051;-70
2023/08/18 10:45:28;;;;;;;13.73;7.90;;;29.50;95.40;;;;;;5045034;28;20040;-70
2023/08/18 10:48:05;;;;;;;14.65;8.82;;;29.30;95.60;;;;;;5064801;28;20503;-71
2023/08/18 10:50:34;;;;;;;17.73;8.02;;;29.20;95.70;;;;;;5064138;28;20060;-69
2023/08/18 10:53:01;;;;;;;13.45;7.88;;;29.30;95.90;;;;;;5055782;28;20495;-69
2023/08/18 10:55:27;;;;;;;14.32;8.13;;;29.50;95.80;;;;;;5068300;28;20033;-68
2023/08/18 10:57:53;;;;;;;15.07;9.13;;;29.60;95.60;;;;;;5058783;28;20024;-68
2023/08/18 11:00:19;;;;;;;17.92;9.20;;;29.60;95.60;;;;;;5061013;28;20381;-71
2023/08/18 11:02:49;;;;;;;15.75;8.00;;;29.60;95.70;;;;;;5065796;28;20048;-71
2023/08/18 11:05:17;;;;;;;13.75;8.23;;;29.60;95.80;;;;;;5055219;28;20094;-68
2023/08/18 11:07:44;;;;;;;15.07;9.45;;;29.70;95.80;;;;;;5066353;28;20018;-68
2023/08/18 11:10:20;;;;;;;16.42;8.60;;;29.80;95.90;;;;;;5060691;28;20387;-71
2023/08/18 11:12:47;;;;;;;15.80;8.75;;;30.00;95.50;;;;;;5057358;28;20531;-70
2023/08/18 11:15:14;;;;;;;18.15;9.45;;;30.00;95.40;;;;;;5068072;28;20483;-70
2023/08/18 11:17:41;;;;;;;15.52;9.00;;;30.00;95.60;;;;;;5057344;28;20062;-68
2023/08/18 11:20:08;;;;;;;16.65;9.50;;;30.00;95.50;;;;;;5063128;28;20061;-70
2023/08/18 11:22:44;;;;;;;15.27;9.43;;;30.00;95.50;;;;;;5064648;28;20032;-70
2023/08/18 11:25:11;;;;;;;16.13;9.70;;;30.10;95.60;;;;;;5055108;28;20033;-68
2023/08/18 11:27:40;;;;;;;15.35;9.55;;;30.00;95.60;;;;;;5048416;28;20388;-72
2023/08/18 11:30:08;;;;;;;16.83;9.52;;;30.20;95.60;;;;;;5060660;28;20035;-69
2023/08/18 11:32:34;;;;;;;15.80;9.52;;;30.40;95.40;;;;;;5058888;28;20051;-71
2023/08/18 11:34:59;;;;;;;16.58;9.70;;;30.50;95.40;;;;;;5069390;28;20037;-69
2023/08/18 11:37:27;;;;;;;15.10;9.18;;;30.70;95.10;;;;;;5058212;28;20021;-69
2023/08/18 11:39:53;;;;;;;17.98;9.55;;;31.00;95.00;;;;;;5066757;28;20036;-69
2023/08/18 11:42:20;;;;;;;20.15;9.68;;;31.30;94.80;;;;;;5064807;28;20024;-72
2023/08/18 11:44:49;;;;;;;16.95;9.02;;;31.70;94.30;;;;;;5060707;28;20107;-70
2023/08/18 11:47:17;;;;;;;14.75;9.27;;;31.90;94.10;;;;;;5071492;28;20024;-69
2023/08/18 11:49:43;;;;;;;16.48;8.85;;;32.10;93.80;;;;;;5060235;28;20564;-70
2023/08/18 11:52:08;;;;;;;16.25;9.23;;;32.10;93.90;;;;;;5065434;28;20108;-69
2023/08/18 11:54:35;;;;;;;15.75;9.73;;;32.40;93.70;;;;;;5067387;28;20025;-69
2023/08/18 11:57:05;;;;;;;15.30;9.48;;;32.80;93.40;;;;;;5058216;28;20033;-69
2023/08/18 11:59:31;;;;;;;15.27;9.90;;;33.30;92.80;;;;;;5052838;28;20103;-69
2023/08/18 12:02:04;;;;;;;14.95;9.85;;;33.80;92.70;;;;;;5066913;28;20036;-70
2023/08/18 12:04:31;;;;;;;17.40;10.02;;;34.40;92.00;;;;;;5065326;28;20028;-71
2023/08/18 12:06:57;;;;;;;18.77;10.35;;;35.10;91.60;;;;;;5055056;28;20059;-70
2023/08/18 12:09:23;;;;;;;14.63;9.43;;;35.90;90.90;;;;;;5056425;28;20025;-70
2023/08/18 12:11:50;;;;;;;16.52;9.48;;;36.40;90.30;;;;;;5068267;28;20025;-69
2023/08/18 12:14:16;;;;;;;15.65;9.10;;;37.00;90.00;;;;;;5062113;28;20063;-72
2023/08/18 12:16:42;;;;;;;17.23;10.30;;;37.40;89.10;;;;;;5056717;28;20116;-69
2023/08/18 12:19:08;;;;;;;15.70;9.23;;;37.80;88.40;;;;;;5054656;28;20049;-70
2023/08/18 12:21:38;;;;;;;13.52;8.95;;;38.10;88.10;;;;;;5054247;28;20075;-72
2023/08/18 12:24:05;;;;;;;13.40;8.68;;;38.50;87.00;;;;;;5053791;28;20043;-70
2023/08/18 12:26:37;;;;;;;16.85;9.25;;;39.00;86.50;;;;;;5053883;28;20052;-72
2023/08/18 12:29:03;;;;;;;14.40;8.93;;;39.70;85.50;;;;;;5052439;28;20025;-69
2023/08/18 12:31:33;;;;;;;15.18;9.02;;;40.10;84.50;;;;;;5052854;28;20087;-71
2023/08/18 12:34:01;;;;;;;15.15;8.52;;;40.60;83.40;;;;;;5053423;28;20041;-69